Messwerte Texarkana

Temperatur

Temperatur
°C
1614484800 22.00 22.00 16
1614488400 23.00 23.00 17
1614492000 0.00 0.00 20
1614495600 1.00 1.00
1614499200 2.00 2.00 21
1614502800 3.00 3.00 21
1614506400 4.00 4.00 21
1614510000 5.00 5.00 21
1614513600 6.00 6.00 21
1614517200 7.00 7.00 21
1614520800 8.00 8.00 21
1614524400 9.00 9.00 21
1614528000 10.00 10.00 22
1614531600 11.00 11.00 22
1614535200 12.00 12.00 23
1614538800 13.00 13.00 25
1614542400 14.00 14.00 24
1614546000 15.00 15.00 24
1614549600 16.00 16.00 24
1614553200 17.00 17.00
1614556800 18.00 18.00 22
1614560400 19.00 19.00 19
1614564000 20.00 20.00 18
1614567600 21.00 21.00 17

Aktuellste Messwerte

Wettercharakter
Wetter: bedeckt
Temperatur
17 °C
Feuchtigkeit
94 %
Wind
10 km/hWindrichtung: Nord
Luftdruck
1014 hPa
Messzeit: 28. Februar 2021, 22.00Datenquelle: METAR

Weitere Messstationen in der Nähe

Messstation Temperatur Entfernung
De Queen 12 °C 77 km
Idabel 10.0 °C 95 km
Mount Pleasant 13 °C 98 km
Shreveport 19 °C 104 km
Shreveport - Barksdale Air Force Base 20 °C 110 km
Shreveport 23 °C 112 km
El Dorado 16 °C 113 km

Wind

Windrichtung Böen Mittelwind
° km/h km/h
1614484800 22.00 21.00 - 22.00 90° 10
1614488400 23.00 22.00 - 23.00 150° 15
1614492000 0.00 23.00 - 0.00 170° 20
1614495600 1.00 0.00 - 1.00
1614499200 2.00 1.00 - 2.00 190° 35 25
1614502800 3.00 2.00 - 3.00 190° 35 20
1614506400 4.00 3.00 - 4.00 190° 35 20
1614510000 5.00 4.00 - 5.00 200° 20
1614513600 6.00 5.00 - 6.00 190° 20
1614517200 7.00 6.00 - 7.00 180° 35 20
1614520800 8.00 7.00 - 8.00 190° 20
1614524400 9.00 8.00 - 9.00 190° 35 20
1614528000 10.00 9.00 - 10.00 190° 30 15
1614531600 11.00 10.00 - 11.00 180° 20
1614535200 12.00 11.00 - 12.00 190° 15
1614538800 13.00 12.00 - 13.00 200° 40 25
1614542400 14.00 13.00 - 14.00 180° 15
1614546000 15.00 14.00 - 15.00 220° 15
1614549600 16.00 15.00 - 16.00 210° 20
1614553200 17.00 16.00 - 17.00
1614556800 18.00 17.00 - 18.00 270° 15
1614560400 19.00 18.00 - 19.00 340° 15
1614564000 20.00 19.00 - 20.00 60° 15
1614567600 21.00 20.00 - 21.00 80° 5

Ihre Wetterstation

Fehlt Ihre Wetterstation auf unserem Portal?

Schreiben Sie an network@meteonews.ch

Klima

Wann ist es am wärmsten? Wann regnet es am wenigsten? Unsere Klimadaten geben Auskunft.